createdAt,value
2022-12-23T00:00:00.243Z,28
2022-12-23T00:05:00.161Z,29
2022-12-23T00:10:00.187Z,30
2022-12-23T00:15:00.538Z,30
2022-12-23T00:20:00.797Z,31
2022-12-23T00:25:00.139Z,30
2022-12-23T00:30:00.143Z,31
2022-12-23T00:35:00.077Z,31
2022-12-23T00:40:06.157Z,30
2022-12-23T00:45:00.309Z,31
2022-12-23T00:50:00.177Z,31
2022-12-23T00:54:59.996Z,30
2022-12-23T01:00:00.104Z,31
2022-12-23T01:05:00.192Z,30
2022-12-23T01:10:00.202Z,30
2022-12-23T01:15:00.283Z,30
2022-12-23T01:20:00.244Z,30
2022-12-23T01:25:00.106Z,30
2022-12-23T01:30:00.102Z,30
2022-12-23T01:35:00.055Z,30
2022-12-23T01:40:00.052Z,29
2022-12-23T01:45:00.290Z,29
2022-12-23T01:50:03.010Z,29
2022-12-23T01:55:00.325Z,28
2022-12-23T01:59:59.994Z,28
2022-12-23T02:05:00.490Z,27
2022-12-23T02:10:00.132Z,26
2022-12-23T02:15:00.038Z,26
2022-12-23T02:20:10.905Z,25
2022-12-23T02:25:18.712Z,24
2022-12-23T02:29:59.894Z,24
2022-12-23T02:35:03.834Z,23
2022-12-23T02:40:06.038Z,22
2022-12-23T02:45:00.111Z,22
2022-12-23T02:50:00.222Z,22
2022-12-23T02:55:04.031Z,22
2022-12-23T03:00:00.477Z,21
2022-12-23T03:05:01.158Z,21
2022-12-23T03:10:07.300Z,21
2022-12-23T03:15:00.000Z,22
2022-12-23T03:20:00.122Z,21
2022-12-23T03:25:02.251Z,21
2022-12-23T03:29:59.973Z,21
2022-12-23T03:35:01.070Z,21
2022-12-23T03:39:59.965Z,21
2022-12-23T03:49:59.906Z,21
2022-12-23T03:55:02.071Z,22
2022-12-23T04:00:00.021Z,22
2022-12-23T04:05:00.170Z,22
2022-12-23T04:10:00.184Z,22
2022-12-23T04:15:00.128Z,23
2022-12-23T04:20:00.037Z,23
2022-12-23T04:24:59.969Z,24
2022-12-23T04:30:00.360Z,24
2022-12-23T04:35:00.213Z,24
2022-12-23T04:39:59.779Z,24
2022-12-23T04:44:59.810Z,24
2022-12-23T04:49:59.963Z,25
2022-12-23T04:54:59.934Z,25
2022-12-23T05:00:00.090Z,25
2022-12-23T05:04:59.909Z,24
2022-12-23T05:09:59.766Z,24
2022-12-23T05:14:59.904Z,23
2022-12-23T05:20:00.319Z,23
2022-12-23T05:24:59.889Z,23
2022-12-23T05:30:00.049Z,23
2022-12-23T05:34:59.911Z,23
2022-12-23T05:39:59.898Z,23
2022-12-23T05:45:00.151Z,23
2022-12-23T05:50:00.345Z,23
2022-12-23T05:55:00.024Z,23
2022-12-23T05:59:59.982Z,24
2022-12-23T06:05:00.009Z,24
2022-12-23T06:09:59.991Z,24
2022-12-23T06:15:00.046Z,24
2022-12-23T06:20:00.203Z,25
2022-12-23T06:24:59.943Z,25
2022-12-23T06:29:59.914Z,26
2022-12-23T06:35:00.088Z,26
2022-12-23T06:39:59.897Z,26
2022-12-23T06:44:59.876Z,26
2022-12-23T06:50:00.126Z,26
2022-12-23T06:54:59.777Z,26
2022-12-23T06:59:59.833Z,27
2022-12-23T07:05:00.092Z,27
2022-12-23T07:09:59.990Z,27
2022-12-23T07:14:59.942Z,27
2022-12-23T07:20:00.327Z,27
2022-12-23T07:24:59.959Z,27
2022-12-23T07:29:59.819Z,27
2022-12-23T07:34:59.908Z,26
2022-12-23T07:40:05.015Z,26
2022-12-23T07:44:59.947Z,26
2022-12-23T07:50:00.034Z,25
2022-12-23T07:55:00.009Z,26
2022-12-23T07:59:59.924Z,26
2022-12-23T08:04:59.877Z,25
2022-12-23T08:09:59.773Z,25
2022-12-23T08:14:59.902Z,25
2022-12-23T08:19:59.843Z,25
2022-12-23T08:24:59.718Z,25
2022-12-23T08:29:59.791Z,25
2022-12-23T08:34:59.845Z,26
2022-12-23T08:39:59.990Z,26
2022-12-23T08:44:59.937Z,26
2022-12-23T08:49:59.876Z,27
2022-12-23T08:55:00.162Z,28
2022-12-23T08:59:59.795Z,29
2022-12-23T09:04:59.571Z,29
2022-12-23T09:09:59.868Z,30
2022-12-23T09:14:59.905Z,30
2022-12-23T09:19:59.733Z,30
2022-12-23T09:25:04.778Z,31
2022-12-23T09:29:59.704Z,31
2022-12-23T09:34:59.602Z,30
2022-12-23T09:40:00.059Z,29
2022-12-23T09:44:59.896Z,28
2022-12-23T09:50:01.899Z,28
2022-12-23T09:54:59.966Z,28
2022-12-23T09:59:59.846Z,27
2022-12-23T10:05:03.439Z,26
2022-12-23T10:09:59.592Z,26
2022-12-23T10:15:01.583Z,26
2022-12-23T10:20:01.473Z,26
2022-12-23T10:24:59.587Z,26
2022-12-23T10:30:19.851Z,26
2022-12-23T10:34:59.621Z,26
2022-12-23T10:39:59.612Z,26
2022-12-23T10:45:06.342Z,27
2022-12-23T10:49:59.702Z,27
2022-12-23T10:54:59.801Z,28
2022-12-23T10:59:59.588Z,28
2022-12-23T11:04:59.910Z,29
2022-12-23T11:10:01.712Z,30
2022-12-23T11:14:59.795Z,31
2022-12-23T11:20:11.177Z,31
2022-12-23T11:25:16.192Z,31
2022-12-23T11:29:59.692Z,32
2022-12-23T11:34:59.893Z,32
2022-12-23T11:39:59.469Z,33
2022-12-23T11:44:59.768Z,34
2022-12-23T11:49:59.580Z,36
2022-12-23T11:55:00.767Z,36
2022-12-23T11:59:59.435Z,37
2022-12-23T12:04:59.539Z,38
2022-12-23T12:09:59.770Z,39
2022-12-23T12:14:59.717Z,39
2022-12-23T12:19:59.698Z,40
2022-12-23T12:24:59.636Z,40
2022-12-23T12:30:07.691Z,40
2022-12-23T12:35:01.919Z,40
2022-12-23T12:39:59.595Z,40
2022-12-23T12:45:04.610Z,41
2022-12-23T12:50:01.211Z,41
2022-12-23T12:54:59.721Z,40
2022-12-23T13:00:05.521Z,40
2022-12-23T13:04:59.511Z,39
2022-12-23T13:10:02.533Z,39
2022-12-23T13:14:59.461Z,39
2022-12-23T13:19:59.467Z,38
2022-12-23T13:25:02.718Z,38
2022-12-23T13:29:59.502Z,38
2022-12-23T13:34:59.518Z,38
2022-12-23T13:40:04.111Z,37
2022-12-23T13:44:59.489Z,37
2022-12-23T13:50:05.422Z,36
2022-12-23T13:54:59.653Z,35
2022-12-23T14:00:05.269Z,34
2022-12-23T14:04:59.660Z,33
2022-12-23T14:09:59.272Z,34
2022-12-23T14:15:17.191Z,33
2022-12-23T14:20:06.315Z,33
2022-12-23T14:25:40.038Z,33
2022-12-23T14:30:05.277Z,32
2022-12-23T14:34:59.432Z,32
2022-12-23T14:40:32.073Z,32
2022-12-23T14:44:59.274Z,31
2022-12-23T14:49:59.641Z,31
2022-12-23T14:55:32.883Z,30
2022-12-23T14:59:59.561Z,29
2022-12-23T15:05:00.310Z,29
2022-12-23T15:10:04.307Z,28
2022-12-23T15:14:59.339Z,28
2022-12-23T15:19:59.519Z,28
2022-12-23T15:24:59.279Z,28
2022-12-23T15:29:59.564Z,28
2022-12-23T15:34:59.316Z,27
2022-12-23T15:40:09.475Z,27
2022-12-23T15:44:59.889Z,27
2022-12-23T15:49:59.397Z,27
2022-12-23T15:54:59.207Z,27
2022-12-23T15:59:59.610Z,27
2022-12-23T16:05:00.590Z,27
2022-12-23T16:09:59.374Z,27
2022-12-23T16:14:59.599Z,27
2022-12-23T16:20:13.137Z,26
2022-12-23T16:25:02.337Z,26
2022-12-23T16:29:59.538Z,26
2022-12-23T16:34:59.313Z,26
2022-12-23T16:39:59.562Z,26
2022-12-23T16:44:59.508Z,25
2022-12-23T16:49:59.498Z,25
2022-12-23T16:54:59.747Z,26
2022-12-23T16:59:59.226Z,26
2022-12-23T17:04:59.432Z,26
2022-12-23T17:09:59.476Z,26
2022-12-23T17:14:59.400Z,27
2022-12-23T17:19:59.337Z,27
2022-12-23T17:24:59.251Z,27
2022-12-23T17:29:59.481Z,28
2022-12-23T17:34:59.474Z,28
2022-12-23T17:39:59.395Z,29
2022-12-23T17:44:59.600Z,30
2022-12-23T17:49:59.426Z,29
2022-12-23T17:54:59.788Z,29
2022-12-23T17:59:59.417Z,29
2022-12-23T18:04:59.420Z,28
2022-12-23T18:09:59.130Z,28
2022-12-23T18:14:59.315Z,28
2022-12-23T18:19:59.274Z,27
2022-12-23T18:24:59.744Z,27
2022-12-23T18:29:59.280Z,26
2022-12-23T18:35:00.740Z,25
2022-12-23T18:40:00.585Z,25
2022-12-23T18:45:00.462Z,24
2022-12-23T18:50:00.582Z,24
2022-12-23T18:55:00.596Z,23
2022-12-23T19:00:00.484Z,22
2022-12-23T19:05:00.469Z,22
2022-12-23T19:10:00.519Z,22
2022-12-23T19:15:00.302Z,21
2022-12-23T19:20:00.405Z,21
2022-12-23T19:25:05.812Z,21
2022-12-23T19:30:00.564Z,21
2022-12-23T19:35:00.408Z,20
2022-12-23T19:40:00.771Z,20
2022-12-23T19:45:00.385Z,20
2022-12-23T19:50:00.542Z,20
2022-12-23T19:55:00.582Z,20
2022-12-23T20:00:00.457Z,20
2022-12-23T20:05:00.344Z,20
2022-12-23T20:10:00.483Z,20
2022-12-23T20:15:00.467Z,19
2022-12-23T20:20:00.305Z,20
2022-12-23T20:25:00.647Z,20
2022-12-23T20:30:00.512Z,19
2022-12-23T20:35:00.387Z,19
2022-12-23T20:40:00.218Z,19
2022-12-23T20:45:00.467Z,18
2022-12-23T20:50:00.530Z,18
2022-12-23T20:55:00.309Z,17
2022-12-23T21:00:00.483Z,16
2022-12-23T21:05:00.484Z,16
2022-12-23T21:10:00.173Z,17
2022-12-23T21:15:00.401Z,16
2022-12-23T21:20:06.923Z,15
2022-12-23T21:25:00.739Z,15
2022-12-23T21:30:00.410Z,14
2022-12-23T21:35:00.430Z,14
2022-12-23T21:40:00.431Z,13
2022-12-23T21:45:00.437Z,13
2022-12-23T21:50:00.216Z,12
2022-12-23T21:55:00.742Z,12
2022-12-23T22:00:00.713Z,12
2022-12-23T22:05:00.410Z,11
2022-12-23T22:10:00.387Z,11
2022-12-23T22:15:01.971Z,11
2022-12-23T22:20:00.403Z,10
2022-12-23T22:25:00.614Z,10
2022-12-23T22:30:00.234Z,10
2022-12-23T22:35:00.465Z,10
2022-12-23T22:40:00.131Z,10
2022-12-23T22:45:00.560Z,9
2022-12-23T22:50:00.457Z,9
2022-12-23T22:55:00.400Z,10
2022-12-23T23:00:03.529Z,10
2022-12-23T23:05:00.550Z,10
2022-12-23T23:10:00.313Z,10
2022-12-23T23:15:00.370Z,10
2022-12-23T23:20:00.428Z,10
2022-12-23T23:25:00.201Z,10
2022-12-23T23:30:00.389Z,10
2022-12-23T23:35:03.006Z,10
2022-12-23T23:40:00.208Z,10
2022-12-23T23:45:00.382Z,10
2022-12-23T23:50:00.139Z,10
2022-12-23T23:55:00.228Z,10
